Burlington, Canada
Current Conditions -  °F | °C
As of 7:00 AM on Wednesday 26 Nov 2014 (Local Time) from CYHM Reporting Station
Overcast Overcast  
Wind Chill: 30°   Ceiling: 3200
Heat Index: 30°   Visibility: 15mi
Dew Point: 25°   Wind: 2mph
Humidity: 80%   Direction: 350°N
Pressure: 30.17"   Gusts: NA
Location:  43.33°N, 79.8°W
Report Text: CYHM 261200Z 35002KT 15SM OVC032 M01/M04 A3017 RMK SC8 SLP225
Loading
Personal Weather Stations






























Interactive Weather Map New forecast layout! Learn more

10-Day Weather Forecast

Advertisements
Track Severe Weather on mobile